Latest Coastal Weather Observations for Barrow Island

IDW60701

Issued at 3:55 am WST Sunday 21 September 2014 (issued every 10 minutes, with the page automatically refreshed every 10 minutes)

About coastal observations | Map of coastal stations | Coastal observations for WA | Marine services | Other Formats
Station Details ID: 005094 Name: BARROW ISLAND AIRPORT Lat: -20.88 Lon: 115.41 Height: 6.4 m
Data from the previous 72 hours. | See also: Recent months at Barrow Island
Date/Time
WST
Temp

°C
Wind Pressure Rain
since 9am
mm
Weather Cloud Vis
km
Sea
Height
m
Swell
Dir
 
Speed
knots
Gust
knots
hPa Trend Height
m
Period
s
Dir
21/03:30am 21.1 W 11 13 1015.6 - 0.0 - - - - - - -
21/03:00am 21.0 W 8 9 1015.8 - 0.0 - - - - - - -
21/02:30am 21.2 W 8 9 1015.9 - 0.0 - - - - - - -
21/02:00am 21.1 W 9 10 1016.0 - 0.0 - - - - - - -
21/01:30am 21.0 W 9 10 1016.0 - 0.0 - - - - - - -
21/01:00am 21.0 WNW 8 9 1016.0 - 0.0 - - - - - - -
21/12:30am 22.3 W 9 12 1015.9 - 0.0 - - - - - - -
21/12:00am 21.6 W 10 11 1016.0 - 0.0 - - - - - - -
 
Date/Time
WST
Temp

°C
Wind Pressure Rain
since 9am
mm
Weather Cloud Vis
km
Sea
Height
m
Swell
Dir
 
Speed
knots
Gust
knots
hPa Trend Height
m
Period
s
Dir
20/11:30pm 21.3 W 10 11 1016.3 - 0.0 - - - - - - -
20/11:00pm 21.4 W 10 10 1016.4 - 0.0 - - - - - - -
20/10:30pm 22.0 WNW 9 10 1016.7 - 0.0 - - - - - - -
20/10:00pm 22.0 WNW 9 9 1016.9 - 0.0 - - - - - - -
20/09:30pm 22.5 WNW 8 9 1016.7 - 0.0 - - - - - - -
20/09:00pm 22.2 WNW 8 9 1016.8 - 0.0 - - - - - - -
20/08:30pm 22.9 NW 6 7 1016.8 - 0.0 - - - - - - -
20/08:00pm 23.5 NNW 5 6 1016.3 - 0.0 - - - - - - -
20/07:30pm 23.9 CALM 0 0 1015.7 - 0.0 - - - - - - -
20/06:30pm 25.8 NE 3 4 1014.8 - 0.0 - - - - - - -
20/06:00pm 26.5 ENE 5 6 1014.5 - 0.0 - - - - - - -
20/05:30pm 27.9 SSE 5 7 1014.2 - 0.0 - - - - - - -
20/05:00pm 31.1 W 8 11 1013.7 - 0.0 - - - - - - -
20/04:30pm 31.0 SW 9 11 1013.5 - 0.0 - - - - - - -
20/04:00pm 30.4 SSW 9 11 1013.3 - 0.0 - - - - - - -
20/03:30pm 30.4 SSW 11 13 1013.0 - 0.0 - - - - - - -
20/03:00pm 29.9 S 11 13 1013.0 - 0.0 - - - - - - -
20/02:30pm 29.2 S 10 12 1013.1 - 0.0 - - - - - - -
20/02:00pm 28.9 SSW 11 12 1013.4 - 0.0 - - - - - - -
20/01:30pm 28.7 S 6 7 1014.2 - 0.0 - - - - - - -
20/01:00pm 28.1 SE 5 6 1014.7 - 0.0 - - - - - - -
20/12:30pm 28.1 SE 5 6 1015.1 - 0.0 - - - - - - -
20/12:00pm 28.1 SE 6 7 1015.3 - 0.0 - - - - - - -
20/11:30am 27.2 ESE 6 7 1015.7 - 0.0 - - - - - - -
20/11:00am 27.4 ESE 5 6 1016.1 - 0.0 - - - - - - -
20/10:30am 27.2 ESE 5 7 1016.4 - 0.0 - - - - - - -
20/10:00am 26.7 SE 6 7 1016.5 - 0.0 - - - - - - -
20/09:30am 26.5 SE 6 7 1016.6 - 0.0 - - - - - - -
20/09:00am 26.3 ESE 5 6 1016.6 - 0.0 - - - - - - -
20/08:30am 26.0 ESE 5 6 1016.5 - 0.0 - - - - - - -
20/08:00am 25.7 ESE 5 7 1016.4 - 0.0 - - - - - - -
20/07:30am 24.9 SE 6 7 1016.0 - 0.0 - - - - - - -
20/07:00am 23.9 SE 7 7 1015.5 - 0.0 - - - - - - -
20/06:30am 23.1 SE 7 8 1015.2 - 0.0 - - - - - - -
20/06:00am 23.0 SSE 8 9 1014.7 - 0.0 - - - - - - -
20/05:30am 22.9 SSE 9 11 1014.5 - 0.0 - - - - - - -
20/05:00am 22.8 S 10 12 1014.3 - 0.0 - - - - - - -
20/04:30am 22.8 S 10 12 1014.1 - 0.0 - - - - - - -
20/04:00am 23.1 S 12 13 1013.9 - 0.0 - - - - - - -
20/03:30am 23.1 S 13 14 1013.8 - 0.0 - - - - - - -
20/03:00am 21.7 SW 9 10 1014.0 - 0.0 - - - - - - -
20/02:30am 21.0 WSW 7 8 1014.2 - 0.0 - - - - - - -
20/02:00am 20.9 WSW 8 8 1014.5 - 0.0 - - - - - - -
20/01:30am 20.4 WSW 9 10 1014.8 - 0.0 - - - - - - -
20/01:00am 19.7 WSW 7 8 1015.2 - 0.0 - - - - - - -
20/12:30am 19.6 W 8 9 1015.4 - 0.0 - - - - - - -
20/12:00am 20.1 W 8 9 1015.7 - 0.0 - - - - - - -
 
Date/Time
WST
Temp

°C
Wind Pressure Rain
since 9am
mm
Weather Cloud Vis
km
Sea
Height
m
Swell
Dir
 
Speed
knots
Gust
knots
hPa Trend Height
m
Period
s
Dir
19/11:30pm 20.3 W 8 9 1015.7 - 0.0 - - - - - - -
19/11:00pm 20.1 W 9 10 1016.1 - 0.0 - - - - - - -
19/10:30pm 20.2 W 9 10 1016.3 - 0.0 - - - - - - -
19/10:00pm 20.8 W 8 8 1016.5 - 0.0 - - - - - - -
19/09:30pm 22.4 WSW 7 8 1016.4 - 0.0 - - - - - - -
19/09:00pm 23.3 SW 7 8 1016.4 - 0.0 - - - - - - -
19/08:30pm 23.7 SW 7 8 1016.2 - 0.0 - - - - - - -
19/08:00pm 23.9 SW 7 8 1015.9 - 0.0 - - - - - - -
19/07:30pm 24.0 SW 7 8 1015.6 - 0.0 - - - - - - -
19/07:00pm 24.9 SW 7 10 1015.3 - 0.0 - - - - - - -
19/06:30pm 25.7 SW 9 11 1014.9 - 0.0 - - - - - - -
19/06:00pm 26.6 SW 11 13 1014.6 - 0.0 - - - - - - -
19/05:30pm 27.2 SW 11 13 1014.4 - 0.0 - - - - - - -
19/05:00pm 27.4 SSW 11 12 1014.2 - 0.0 - - - - - - -
19/04:30pm 27.9 SSW 11 13 1014.0 - 0.0 - - - - - - -
19/04:00pm 28.0 SSW 11 13 1013.7 - 0.0 - - - - - - -
19/03:30pm 27.7 SSW 10 11 1013.9 - 0.0 - - - - - - -
19/03:00pm 28.3 SSW 9 11 1013.9 - 0.0 - - - - - - -
19/02:30pm 28.3 S 9 10 1014.0 - 0.0 - - - - - - -
19/02:00pm 28.2 S 8 9 1014.5 - 0.0 - - - - - - -
19/01:30pm 28.0 S 8 9 1014.8 - 0.0 - - - - - - -
19/01:00pm 27.4 S 8 9 1015.2 - 0.0 - - - - - - -
19/12:30pm 27.2 S 9 11 1015.5 - 0.0 - - - - - - -
19/12:00pm 27.2 S 8 9 1015.8 - 0.0 - - - - - - -
19/11:30am 26.6 S 8 9 1016.2 - 0.0 - - - - - - -
19/11:00am 26.1 S 7 8 1016.5 - 0.0 - - - - - - -
19/10:30am 26.2 S 9 10 1016.8 - 0.0 - - - - - - -
19/10:00am 25.6 S 11 12 1017.1 - 0.0 - - - - - - -
19/09:30am 25.4 S 12 13 1017.3 - 0.0 - - - - - - -
19/09:00am 25.0 S 12 14 1017.4 - 0.0 - - - - - - -
19/08:30am 24.8 S 12 14 1017.3 - 0.0 - - - - - - -
19/08:00am 24.2 S 13 15 1017.2 - 0.0 - - - - - - -
19/07:30am 23.9 S 12 15 1017.0 - 0.0 - - - - - - -
19/07:00am 23.2 S 12 15 1016.7 - 0.0 - - - - - - -
19/06:30am 22.8 SSE 14 17 1016.3 - 0.0 - - - - - - -
19/06:00am 22.7 S 15 18 1016.1 - 0.0 - - - - - - -
19/05:30am 23.0 S 17 19 1015.8 - 0.0 - - - - - - -
19/05:00am 23.2 S 17 20 1015.5 - 0.0 - - - - - - -
19/04:30am 23.3 S 16 19 1015.6 - 0.0 - - - - - - -
19/04:00am 23.6 S 16 18 1015.2 - 0.0 - - - - - - -
19/03:30am 23.7 S 15 19 1015.2 - 0.0 - - - - - - -
19/03:00am 23.7 S 17 20 1015.4 - 0.0 - - - - - - -
19/02:30am 23.7 S 15 17 1015.5 - 0.0 - - - - - - -
19/02:00am 23.8 S 17 20 1015.7 - 0.0 - - - - - - -
19/01:30am 23.8 S 17 20 1015.7 - 0.0 - - - - - - -
19/01:00am 23.8 S 16 19 1015.9 - 0.0 - - - - - - -
19/12:30am 21.9 SW 10 13 1016.3 - 0.0 - - - - - - -
19/12:00am 21.8 WSW 9 11 1016.5 - 0.0 - - - - - - -
 
Date/Time
WST
Temp

°C
Wind Pressure Rain
since 9am
mm
Weather Cloud Vis
km
Sea
Height
m
Swell
Dir
 
Speed
knots
Gust
knots
hPa Trend Height
m
Period
s
Dir
18/11:30pm 21.6 W 11 13 1016.5 - 0.0 - - - - - - -
18/11:00pm 21.9 WSW 10 13 1016.7 - 0.0 - - - - - - -
18/10:30pm 21.8 WSW 11 15 1016.9 - 0.0 - - - - - - -
18/10:00pm 21.5 W 9 12 1017.1 - 0.0 - - - - - - -
18/09:30pm 21.0 W 10 11 1017.0 - 0.0 - - - - - - -
18/09:00pm 21.3 W 9 11 1017.0 - 0.0 - - - - - - -
18/08:30pm 21.8 WSW 9 10 1016.7 - 0.0 - - - - - - -
18/08:00pm 22.1 WSW 9 10 1016.6 - 0.0 - - - - - - -
18/07:30pm 22.3 WSW 9 11 1016.2 - 0.0 - - - - - - -
18/07:00pm 22.8 WSW 11 13 1015.9 - 0.0 - - - - - - -
18/06:30pm 23.1 WSW 10 12 1015.5 - 0.0 - - - - - - -
18/06:00pm 23.9 WSW 11 13 1015.1 - 0.0 - - - - - - -
18/05:30pm 24.8 SW 12 13 1014.7 - 0.0 - - - - - - -
18/05:00pm 25.2 SW 11 13 1014.5 - 0.0 - - - - - - -
18/04:30pm 25.3 SW 13 15 1014.4 - 0.0 - - - - - - -
18/04:00pm 25.5 SW 13 15 1014.5 - 0.0 - - - - - - -
18/03:30pm 25.7 SW 13 15 1014.7 - 0.0 - - - - - - -
18/03:00pm 25.7 SW 13 16 1014.7 - 0.0 - - - - - - -
18/02:30pm 25.9 SW 14 17 1014.9 - 0.0 - - - - - - -
18/02:00pm 26.2 SSW 11 13 1015.2 - 0.0 - - - - - - -
18/01:30pm 26.7 SSW 10 12 1015.5 - 0.0 - - - - - - -
18/01:00pm 26.2 SSW 11 14 1015.8 - 0.0 - - - - - - -
18/12:30pm 25.5 SSW 9 11 1016.3 - 0.0 - - - - - - -
18/12:00pm 25.0 SSW 10 11 1016.8 - 0.0 - - - - - - -
18/11:30am 25.1 SSW 10 12 1017.2 - 0.0 - - - - - - -
18/11:00am 24.4 SSW 10 13 1017.5 - 0.0 - - - - - - -
18/10:30am 24.2 SSW 11 13 1017.6 - 0.0 - - - - - - -
18/10:00am 24.0 S 10 12 1017.7 - 0.0 - - - - - - -
18/09:30am 23.9 S 12 14 1017.7 - 0.0 - - - - - - -
18/09:00am 23.0 S 15 18 1017.5 - 0.0 - - - - - - -
18/08:30am 22.7 S 15 17 1017.3 - 0.0 - - - - - - -
18/08:00am 22.6 S 14 16 1017.0 - 0.0 - - - - - - -
18/07:30am 22.2 S 14 16 1016.8 - 0.0 - - - - - - -
18/07:00am 21.9 S 14 17 1016.4 - 0.0 - - - - - - -
18/06:30am 21.5 S 15 17 1016.1 - 0.0 - - - - - - -
18/06:00am 21.5 S 15 18 1015.9 - 0.0 - - - - - - -
18/05:30am 21.7 S 13 16 1015.8 - 0.0 - - - - - - -
18/05:00am 21.7 S 16 18 1015.3 - 0.0 - - - - - - -
18/04:30am 22.0 S 16 19 1014.9 - 0.0 - - - - - - -
18/04:00am 22.1 SSW 15 17 1015.0 - 0.0 - - - - - - -

Other Formats:

Comma delimited format used in spreadsheet applications
http://www.bom.gov.au/fwo/IDW60701/IDW60701.95304.axf

JavaScript Object Notation format (JSON) in row-major order
http://www.bom.gov.au/fwo/IDW60701/IDW60701.95304.json